Time;durP1;ratioP1;P1;durP2;ratioP2;P2;SDS_P1;SDS_P2;PMS_P1;PMS_P2;Temp;Humidity;BMP_temperature;BMP_pressure;BME280_temperature;BME280_humidity;BME280_pressure;Samples;Min_cycle;Max_cycle;Signal;HPM_P1;HPM_P2
2022/09/19 00:00:36;;;;;;;2.03;0.60;;;;;;;12.31;57.14;100355.91;5031240;28;20041;-78
2022/09/19 00:03:02;;;;;;;4.50;0.50;;;;;;;11.53;56.92;100206.63;5030519;28;20109;-79
2022/09/19 00:05:27;;;;;;;1.40;0.57;;;;;;;12.20;57.40;100374.44;5033095;28;20063;-79
2022/09/19 00:07:53;;;;;;;1.27;0.57;;;;;;;11.23;57.36;100169.16;5033017;28;20570;-78
2022/09/19 00:10:18;;;;;;;1.20;0.50;;;;;;;12.20;57.56;100361.28;5049630;28;20492;-79
2022/09/19 00:12:43;;;;;;;2.42;1.08;;;;;;;12.30;57.91;100353.31;5031310;28;20052;-79
2022/09/19 00:15:09;;;;;;;3.97;0.88;;;;;;;12.21;58.26;100359.53;5030664;28;20092;-78
2022/09/19 00:17:35;;;;;;;1.25;0.52;;;;;;;12.02;58.75;100351.75;5013696;28;20095;-79
2022/09/19 00:20:01;;;;;;;1.63;0.65;;;;;;;11.70;58.42;100274.84;5005715;28;20493;-77
2022/09/19 00:22:26;;;;;;;12.23;0.70;;;;;;;12.10;58.70;100358.72;5010673;28;20045;-79
2022/09/19 00:24:51;;;;;;;1.58;0.73;;;;;;;12.06;58.51;100344.75;5026554;28;20036;-77
2022/09/19 00:27:20;;;;;;;0.88;0.32;;;;;;;10.82;58.84;100136.19;5031138;28;20968;-78
2022/09/19 00:29:46;;;;;;;2.22;0.60;;;;;;;11.84;58.90;100350.09;5030701;28;20090;-79
2022/09/19 00:32:12;;;;;;;2.35;0.70;;;;;;;12.00;58.73;100357.91;5030390;28;20441;-77
2022/09/19 00:34:40;;;;;;;2.35;0.85;;;;;;;11.84;58.59;100326.41;5030386;28;20087;-79
2022/09/19 00:37:06;;;;;;;2.38;0.63;;;;;;;11.14;58.75;100224.38;5012292;28;20072;-77
2022/09/19 00:39:31;;;;;;;2.92;0.73;;;;;;;11.60;58.89;100330.06;5031004;28;20041;-78
2022/09/19 00:41:57;;;;;;;0.95;0.38;;;;;;;11.42;58.75;100288.13;5029720;28;20508;-79
2022/09/19 00:44:23;;;;;;;1.25;0.75;;;;;;;11.65;59.38;100369.47;5030293;28;20229;-77
2022/09/19 00:47:14;;;;;;;3.50;0.57;;;;;;;11.68;59.70;100374.72;5028829;28;20456;-77
2022/09/19 00:49:44;;;;;;;3.20;0.80;;;;;;;11.73;59.64;100353.66;5005603;28;20501;-79
2022/09/19 00:52:30;;;;;;;1.13;0.50;;;;;;;11.05;59.11;100230.56;5010159;28;20054;-78
2022/09/19 00:54:56;;;;;;;1.05;0.52;;;;;;;11.69;59.79;100368.59;5001998;28;20404;-80
2022/09/19 00:57:33;;;;;;;1.23;0.55;;;;;;;10.74;60.06;100233.28;5030028;28;20037;-78
2022/09/19 00:59:59;;;;;;;1.45;0.55;;;;;;;11.44;60.58;100365.19;5008161;28;20057;-80
2022/09/19 01:02:28;;;;;;;2.70;0.90;;;;;;;11.39;59.93;100331.06;5019837;28;20041;-77
2022/09/19 01:04:54;;;;;;;1.88;0.82;;;;;;;11.28;60.98;100305.72;5049539;28;20044;-77
2022/09/19 01:07:36;;;;;;;12.77;0.95;;;;;;;11.73;60.32;100372.06;5049495;28;20080;-77
2022/09/19 01:10:37;;;;;;;1.15;0.70;;;;;;;11.24;61.58;100375.81;5048974;28;20110;-79
2022/09/19 01:13:20;;;;;;;1.42;0.55;;;;;;;10.64;60.87;100236.84;5009507;28;20076;-80
2022/09/19 01:16:26;;;;;;;3.45;0.70;;;;;;;11.40;61.12;100381.84;5013835;28;20104;-79
2022/09/19 01:19:05;;;;;;;2.92;0.88;;;;;;;11.33;61.35;100369.63;5015466;28;20053;-79
2022/09/19 01:22:02;;;;;;;1.48;0.50;;;;;;;11.20;62.21;100348.66;5010317;28;20452;-80
2022/09/19 01:24:40;;;;;;;1.05;0.43;;;;;;;11.26;61.68;100400.31;5019143;28;20042;-78
2022/09/19 01:27:44;;;;;;;6.47;0.50;;;;;;;11.38;61.88;100396.78;5028999;28;20150;-81
2022/09/19 01:30:13;;;;;;;1.90;0.90;;;;;;;10.85;61.63;100296.25;5029195;28;20045;-80
2022/09/19 01:32:51;;;;;;;1.65;0.68;;;;;;;11.12;61.62;100391.56;5029061;28;20056;-79
2022/09/19 01:35:24;;;;;;;1.35;0.50;;;;;;;11.00;62.15;100358.34;5011122;28;20077;-78
2022/09/19 01:38:10;;;;;;;1.60;0.90;;;;;;;10.59;61.67;100280.59;5028901;28;20584;-79
2022/09/19 01:40:37;;;;;;;1.05;0.70;;;;;;;10.64;61.74;100306.81;5029028;28;20454;-80
2022/09/19 01:43:16;;;;;;;6.60;1.58;;;;;;;11.07;61.94;100360.06;5011765;28;20055;-79
2022/09/19 01:45:42;;;;;;;1.90;0.98;;;;;;;11.01;62.59;100404.75;5029426;28;20021;-80
2022/09/19 01:48:20;;;;;;;1.95;0.73;;;;;;;10.47;62.57;100286.75;5027121;28;20053;-78
2022/09/19 01:51:04;;;;;;;5.63;1.08;;;;;;;11.32;62.30;100410.78;4994181;28;20069;-78
2022/09/19 01:53:49;;;;;;;4.00;0.88;;;;;;;11.24;62.55;100415.19;5008922;28;20076;-77
2022/09/19 01:56:36;;;;;;;1.58;0.80;;;;;;;11.00;63.14;100408.22;5003252;28;20049;-79
2022/09/19 01:59:21;;;;;;;2.22;0.82;;;;;;;10.96;63.47;100401.25;5008582;28;20045;-79
2022/09/19 02:01:53;;;;;;;3.40;0.75;;;;;;;10.46;62.97;100302.47;4990849;28;20516;-79
2022/09/19 02:04:49;;;;;;;2.67;0.77;;;;;;;10.99;63.92;100399.47;5008882;28;20052;-78
2022/09/19 02:07:30;;;;;;;5.53;1.20;;;;;;;10.03;63.83;100252.66;5008435;28;20428;-79
2022/09/19 02:10:01;;;;;;;2.35;0.90;;;;;;;10.87;63.95;100396.03;5008720;28;20042;-78
2022/09/19 02:12:30;;;;;;;2.92;0.90;;;;;;;10.57;64.30;100358.44;4990360;28;20500;-79
2022/09/19 02:14:59;;;;;;;10.88;0.82;;;;;;;10.06;64.09;100263.13;5008402;28;20052;-80
2022/09/19 02:17:33;;;;;;;1.02;0.60;;;;;;;10.30;65.96;100367.16;4989225;28;20804;-78
2022/09/19 02:20:09;;;;;;;;;;;;;;;10.62;65.37;100411.78;4989629;28;20544;-81
2022/09/19 02:22:51;;;;;;;6.38;1.20;;;;;;;10.80;65.34;100400.41;4971372;28;19969;-78
2022/09/19 02:25:22;;;;;;;2.88;0.90;;;;;;;10.85;64.87;100413.53;5008023;28;20046;-80
2022/09/19 02:28:21;;;;;;;3.67;1.20;;;;;;;10.84;65.64;100424.88;4990337;28;20366;-77
2022/09/19 02:30:48;;;;;;;4.70;1.25;;;;;;;10.57;65.70;100361.06;5003556;28;20120;-78
2022/09/19 02:33:15;;;;;;;2.33;0.70;;;;;;;10.54;65.71;100387.31;5008207;28;20122;-79
2022/09/19 02:36:34;;;;;;;3.05;1.15;;;;;;;10.71;66.59;100408.28;5008020;28;20573;-78
2022/09/19 02:39:21;;;;;;;6.70;1.02;;;;;;;10.89;66.07;100410.03;4946617;29;20061;-76
2022/09/19 02:42:16;;;;;;;5.45;1.00;;;;;;;10.96;65.52;100411.75;4946345;29;20043;-77
2022/09/19 02:45:32;;;;;;;1.70;0.47;;;;;;;10.83;66.38;100415.25;5001922;28;20046;-78
2022/09/19 02:48:26;;;;;;;3.63;1.08;;;;;;;10.63;66.28;100387.28;4989436;28;20056;-80
2022/09/19 02:51:01;;;;;;;2.60;1.02;;;;;;;10.65;66.22;100385.56;5008648;28;20058;-79
2022/09/19 02:53:33;;;;;;;2.65;0.90;;;;;;;10.41;66.44;100341.81;5007946;28;20089;-79
2022/09/19 02:56:02;;;;;;;2.37;1.20;;;;;;;9.89;66.69;100273.63;4990336;28;20377;-78
2022/09/19 02:58:34;;;;;;;2.33;0.95;;;;;;;9.84;66.66;100265.75;5007962;28;20074;-81
2022/09/19 03:01:05;;;;;;;3.58;0.82;;;;;;;10.92;66.67;100420.50;5007649;28;20143;-80
2022/09/19 03:06:27;;;;;;;3.95;1.33;;;;;;;10.69;67.31;100403.00;5007640;28;20095;-80
2022/09/19 03:08:56;;;;;;;1.48;0.80;;;;;;;10.43;67.03;100370.69;5007292;28;20067;-77
2022/09/19 03:11:26;;;;;;;2.50;0.85;;;;;;;10.86;66.94;100425.75;5007584;28;20063;-80
2022/09/19 03:13:58;;;;;;;1.35;0.65;;;;;;;10.21;66.88;100305.09;5007696;28;20046;-78
2022/09/19 03:16:34;;;;;;;1.25;0.75;;;;;;;9.66;67.70;100260.50;4980732;28;20046;-79
2022/09/19 03:19:05;;;;;;;3.45;0.88;;;;;;;10.61;67.49;100403.91;4986315;28;20045;-79
2022/09/19 03:21:31;;;;;;;2.80;1.08;;;;;;;10.06;67.58;100305.94;4988223;28;20116;-78
2022/09/19 03:24:00;;;;;;;1.95;1.00;;;;;;;10.40;67.43;100345.31;4995564;28;20053;-79
2022/09/19 03:26:30;;;;;;;5.85;1.08;;;;;;;10.01;67.09;100273.63;4989524;28;20042;-78
2022/09/19 03:28:58;;;;;;;0.90;0.60;;;;;;;10.68;67.29;100429.28;5007420;28;20046;-78
2022/09/19 03:31:24;;;;;;;3.72;1.25;;;;;;;9.98;67.66;100328.69;5007372;28;20129;-79
2022/09/19 03:33:51;;;;;;;2.95;1.00;;;;;;;10.60;67.73;100425.75;4989196;28;20393;-80
2022/09/19 03:36:18;;;;;;;3.13;0.93;;;;;;;10.11;68.09;100355.75;5007697;28;20036;-79
2022/09/19 03:38:44;;;;;;;4.30;1.10;;;;;;;10.15;68.07;100394.22;5006827;28;20172;-79
2022/09/19 03:41:18;;;;;;;3.90;1.10;;;;;;;9.93;68.54;100357.50;5006686;28;20042;-79
2022/09/19 03:43:44;;;;;;;6.45;1.10;;;;;;;10.29;68.36;100392.53;4989044;28;20042;-79
2022/09/19 03:46:15;;;;;;;3.58;1.40;;;;;;;9.88;68.42;100316.41;5006796;28;20045;-77
2022/09/19 03:48:45;;;;;;;4.68;0.75;;;;;;;9.85;68.70;100300.69;4996981;28;20086;-80
2022/09/19 03:51:11;;;;;;;4.57;1.00;;;;;;;10.63;68.38;100426.66;4988130;28;20062;-79
2022/09/19 03:53:38;;;;;;;4.88;1.30;;;;;;;9.51;68.23;100274.47;4987351;28;20636;-77
2022/09/19 03:56:04;;;;;;;7.13;1.17;;;;;;;9.79;68.49;100343.50;5004925;28;20100;-80
2022/09/19 03:58:30;;;;;;;4.13;1.48;;;;;;;9.28;69.82;100316.28;5006817;28;20475;-80
2022/09/19 04:01:00;;;;;;;3.08;1.08;;;;;;;10.07;69.78;100430.06;5006386;28;20133;-80
2022/09/19 04:03:25;;;;;;;5.32;1.75;;;;;;;9.94;69.95;100421.28;5007134;28;20475;-81
2022/09/19 04:05:51;;;;;;;3.58;1.48;;;;;;;9.35;70.03;100325.03;5006936;28;20057;-80
2022/09/19 04:08:18;;;;;;;2.92;0.88;;;;;;;9.87;70.59;100443.97;5006504;28;20052;-79
2022/09/19 04:10:43;;;;;;;2.25;1.10;;;;;;;10.09;70.54;100447.53;5007065;28;20033;-78
2022/09/19 04:13:10;;;;;;;6.05;1.70;;;;;;;10.09;70.62;100444.03;4989132;28;20045;-78
2022/09/19 04:15:37;;;;;;;2.67;1.13;;;;;;;10.21;70.41;100453.66;5004129;28;20117;-79
2022/09/19 04:18:06;;;;;;;4.20;1.45;;;;;;;9.44;70.34;100338.16;4985440;28;20046;-80
2022/09/19 04:20:33;;;;;;;6.70;1.80;;;;;;;9.37;70.26;100312.84;4987606;28;20056;-78
2022/09/19 04:23:00;;;;;;;11.40;1.75;;;;;;;10.03;70.68;100402.94;4988043;28;20054;-79
2022/09/19 04:25:34;;;;;;;5.53;1.77;;;;;;;9.21;69.87;100299.66;5006340;28;20124;-77
2022/09/19 04:28:04;;;;;;;2.38;0.82;;;;;;;8.99;70.68;100308.28;5007081;28;20048;-78
2022/09/19 04:30:35;;;;;;;3.50;1.60;;;;;;;10.08;70.89;100468.50;5007548;28;20034;-77
2022/09/19 04:33:02;;;;;;;11.98;1.58;;;;;;;10.15;70.98;100451.91;4988435;28;20473;-78
2022/09/19 04:35:35;;;;;;;3.42;1.38;;;;;;;9.87;71.03;100401.16;4989162;28;20494;-79
2022/09/19 04:38:13;;;;;;;4.25;1.33;;;;;;;9.09;70.95;100303.13;5009881;28;20200;-79
2022/09/19 04:40:40;;;;;;;6.45;1.55;;;;;;;9.64;71.60;100422.91;5008315;28;20072;-80
2022/09/19 04:43:10;;;;;;;9.55;1.60;;;;;;;9.89;70.88;100429.13;4991720;28;20069;-81
2022/09/19 04:45:37;;;;;;;4.45;2.03;;;;;;;10.35;70.98;100465.97;5010232;28;20442;-78
2022/09/19 04:48:05;;;;;;;3.88;1.50;;;;;;;10.15;70.76;100429.19;5005562;28;20486;-77
2022/09/19 04:50:37;;;;;;;6.32;2.33;;;;;;;10.00;70.24;100416.06;4999872;28;20087;-81
2022/09/19 04:53:03;;;;;;;5.07;1.90;;;;;;;9.93;69.84;100391.56;5008146;28;20521;-80
2022/09/19 04:55:29;;;;;;;4.53;1.30;;;;;;;10.53;70.00;100469.50;5014673;28;20053;-79
2022/09/19 04:57:56;;;;;;;3.47;1.42;;;;;;;9.68;69.72;100305.91;5049466;28;20178;-79
2022/09/19 05:00:38;;;;;;;3.75;1.95;;;;;;;10.48;69.47;100466.84;5050691;28;20040;-82
2022/09/19 05:03:15;;;;;;;2.85;1.65;;;;;;;10.30;68.93;100428.38;5049290;28;20049;-80
2022/09/19 05:05:44;;;;;;;5.15;1.85;;;;;;;10.78;69.11;100458.13;5042463;28;20676;-79
2022/09/19 05:08:12;;;;;;;7.82;1.85;;;;;;;9.88;68.62;100314.69;5048523;28;20142;-78
2022/09/19 05:10:38;;;;;;;3.72;1.88;;;;;;;10.03;68.72;100319.06;5045582;28;20045;-79
2022/09/19 05:13:04;;;;;;;3.85;2.13;;;;;;;10.24;68.73;100333.06;5029322;28;20169;-77
2022/09/19 05:15:30;;;;;;;5.07;1.27;;;;;;;10.92;67.70;100467.75;5030364;28;20141;-78
2022/09/19 05:17:55;;;;;;;3.50;1.73;;;;;;;9.90;67.54;100305.09;5006399;28;20527;-78
2022/09/19 05:20:25;;;;;;;6.88;1.92;;;;;;;10.95;67.80;100445.00;4995789;28;20044;-79
2022/09/19 05:23:01;;;;;;;6.38;1.75;;;;;;;10.97;67.75;100480.00;5029941;28;20099;-78
2022/09/19 05:25:28;;;;;;;3.80;1.50;;;;;;;10.70;68.08;100404.78;5026113;28;20494;-78
2022/09/19 05:27:56;;;;;;;8.23;1.17;;;;;;;10.50;66.18;100354.94;5029351;28;20045;-79
2022/09/19 05:30:24;;;;;;;3.25;1.52;;;;;;;11.09;66.12;100444.09;5029615;28;20501;-79
2022/09/19 05:32:54;;;;;;;4.93;1.52;;;;;;;10.40;65.89;100297.25;5010553;28;20072;-78
2022/09/19 05:35:20;;;;;;;4.22;2.20;;;;;;;10.88;64.79;100324.25;5027458;28;20068;-78
2022/09/19 05:37:46;;;;;;;3.95;1.60;;;;;;;11.84;62.68;100336.06;5028904;28;20053;-77
2022/09/19 05:40:12;;;;;;;9.05;2.03;;;;;;;12.54;59.96;100420.66;5010720;28;20049;-80
2022/09/19 05:42:42;;;;;;;13.88;3.17;;;;;;;12.99;57.33;100324.53;5011234;28;20124;-80
2022/09/19 05:45:10;;;;;;;6.30;1.70;;;;;;;13.48;56.59;100323.97;5028386;28;20103;-78
2022/09/19 05:47:37;;;;;;;13.98;2.20;;;;;;;13.92;55.01;100348.84;5023567;28;20045;-75
2022/09/19 05:50:03;;;;;;;7.00;1.70;;;;;;;14.74;54.59;100466.41;5026544;28;20069;-79
2022/09/19 05:55:12;;;;;;;9.65;3.17;;;;;;;14.49;55.65;100445.66;5027826;28;20496;-80
2022/09/19 05:57:38;;;;;;;6.88;1.58;;;;;;;14.50;56.44;100455.31;5028641;28;20034;-80
2022/09/19 06:00:05;;;;;;;12.23;2.72;;;;;;;14.31;56.47;100427.47;5027969;28;20041;-80
2022/09/19 06:02:31;;;;;;;10.10;2.08;;;;;;;14.37;55.83;100466.94;5028281;28;20119;-80
2022/09/19 06:04:57;;;;;;;14.68;2.13;;;;;;;13.87;55.84;100463.25;5027790;28;20231;-79
2022/09/19 06:07:23;;;;;;;5.85;1.50;;;;;;;14.03;57.62;100479.75;5028199;28;20417;-80
2022/09/19 06:09:52;;;;;;;7.22;1.88;;;;;;;14.19;57.50;100483.03;5028168;28;20120;-79
2022/09/19 06:12:18;;;;;;;5.53;1.55;;;;;;;13.51;56.20;100366.13;5028119;28;20044;-81
2022/09/19 06:14:43;;;;;;;5.30;2.05;;;;;;;13.22;58.55;100329.56;5027980;28;20041;-81
2022/09/19 06:17:11;;;;;;;8.68;2.10;;;;;;;13.65;56.93;100402.88;5026225;28;20053;-80
2022/09/19 06:19:37;;;;;;;4.47;1.88;;;;;;;13.06;56.15;100331.53;5025408;28;20061;-80
2022/09/19 06:22:04;;;;;;;3.13;1.45;;;;;;;13.24;58.46;100351.50;5027473;28;20401;-81
2022/09/19 06:24:30;;;;;;;3.30;1.55;;;;;;;13.98;58.90;100489.47;5009971;28;20042;-78
2022/09/19 06:26:55;;;;;;;7.25;1.27;;;;;;;13.85;59.86;100497.53;5027994;28;20597;-80
2022/09/19 06:29:21;;;;;;;6.47;2.58;;;;;;;13.22;58.94;100381.38;5027795;28;20123;-80
2022/09/19 06:31:47;;;;;;;2.78;1.08;;;;;;;14.00;59.00;100491.22;5017395;28;20054;-79
2022/09/19 06:34:14;;;;;;;2.78;0.85;;;;;;;13.97;58.02;100490.38;5009664;28;20456;-81
2022/09/19 06:36:42;;;;;;;4.45;1.73;;;;;;;13.61;59.57;100453.03;5027895;28;20038;-78
2022/09/19 06:39:08;;;;;;;5.18;1.52;;;;;;;13.21;58.73;100377.03;5009831;28;20045;-79
2022/09/19 06:41:34;;;;;;;3.90;1.67;;;;;;;12.97;57.61;100380.75;5026865;28;20409;-80
2022/09/19 06:44:01;;;;;;;5.20;1.70;;;;;;;13.61;58.33;100460.94;5009656;28;20604;-79
2022/09/19 06:46:26;;;;;;;6.45;2.67;;;;;;;13.87;57.14;100494.91;5027562;28;20176;-80
2022/09/19 06:48:52;;;;;;;3.92;1.88;;;;;;;13.07;57.68;100327.97;5025213;28;20461;-78
2022/09/19 06:51:17;;;;;;;7.80;2.35;;;;;;;13.36;58.71;100373.34;5007711;28;20153;-79
2022/09/19 06:53:47;;;;;;;8.90;1.75;;;;;;;13.87;57.72;100466.75;5007972;28;20049;-80
2022/09/19 06:56:13;;;;;;;9.65;1.75;;;;;;;14.03;56.14;100492.94;5027501;28;20519;-79
2022/09/19 06:58:38;;;;;;;7.50;2.20;;;;;;;13.85;55.83;100472.94;5009612;28;20033;-80
2022/09/19 07:01:04;;;;;;;8.00;1.77;;;;;;;13.41;57.92;100374.16;5027028;28;20492;-81
2022/09/19 07:03:29;;;;;;;5.72;1.63;;;;;;;13.99;58.07;100491.25;5027445;28;20097;-81
2022/09/19 07:05:59;;;;;;;4.20;1.80;;;;;;;13.37;56.41;100375.97;5026459;28;20042;-80
2022/09/19 07:08:25;;;;;;;5.13;2.03;;;;;;;13.96;55.59;100480.72;5026952;28;20061;-81
2022/09/19 07:10:51;;;;;;;5.70;1.60;;;;;;;13.60;55.95;100386.25;5026675;28;20128;-80
2022/09/19 07:13:17;;;;;;;7.43;1.42;;;;;;;13.47;55.73;100382.00;5026732;28;20048;-80
2022/09/19 07:15:43;;;;;;;11.57;1.60;;;;;;;14.27;55.05;100479.41;5027391;28;20033;-80
2022/09/19 07:18:12;;;;;;;5.00;1.60;;;;;;;14.44;55.36;100510.84;5023754;28;20120;-80
2022/09/19 07:20:38;;;;;;;4.82;1.33;;;;;;;13.78;55.18;100389.50;5026093;28;20049;-80
2022/09/19 07:23:09;;;;;;;10.27;2.50;;;;;;;13.55;55.28;100334.44;5026622;28;20048;-80
2022/09/19 07:25:34;;;;;;;6.00;2.50;;;;;;;13.84;54.63;100386.81;5026111;28;20037;-80
2022/09/19 07:28:02;;;;;;;6.05;2.53;;;;;;;14.62;55.19;100514.16;5026384;28;20377;-81
2022/09/19 07:30:35;;;;;;;3.78;2.03;;;;;;;14.26;55.75;100406.41;5027054;28;20559;-80
2022/09/19 07:33:03;;;;;;;6.07;2.17;;;;;;;14.81;53.99;100515.59;5026423;28;20493;-80
2022/09/19 07:35:32;;;;;;;6.97;1.95;;;;;;;14.36;54.33;100405.38;5026631;28;20508;-75
2022/09/19 07:37:58;;;;;;;12.98;2.13;;;;;;;14.20;56.07;100376.59;5026419;28;20041;-80
2022/09/19 07:40:23;;;;;;;5.28;1.50;;;;;;;14.72;53.08;100458.50;5026845;28;20350;-80
2022/09/19 07:42:51;;;;;;;9.85;2.55;;;;;;;15.07;53.12;100514.31;5008647;28;20099;-80
2022/09/19 07:45:17;;;;;;;2.83;1.58;;;;;;;14.38;52.70;100393.94;5044378;28;20033;-79
2022/09/19 07:47:47;;;;;;;5.20;1.70;;;;;;;15.05;52.24;100513.47;5043825;28;20111;-79
2022/09/19 07:50:16;;;;;;;21.00;1.63;;;;;;;14.94;51.16;100477.53;5006142;28;20128;-80
2022/09/19 07:52:46;;;;;;;4.68;1.48;;;;;;;14.72;52.52;100413.59;5006705;28;20056;-80
2022/09/19 07:55:13;;;;;;;12.27;2.58;;;;;;;15.40;50.97;100516.38;5008615;28;20405;-80
2022/09/19 07:57:49;;;;;;;7.00;2.50;;;;;;;15.36;51.60;100508.53;5027124;28;20486;-80
2022/09/19 08:00:14;;;;;;;6.93;2.42;;;;;;;14.91;51.67;100386.88;5008443;28;20454;-81
2022/09/19 08:02:40;;;;;;;5.07;2.53;;;;;;;14.65;50.56;100361.78;5026209;28;20038;-81
2022/09/19 08:05:05;;;;;;;6.10;2.03;;;;;;;15.82;51.56;100518.25;5026335;28;20042;-80
2022/09/19 08:07:31;;;;;;;7.40;2.55;;;;;;;15.35;51.87;100420.38;5025933;28;20053;-80
2022/09/19 08:09:57;;;;;;;4.68;1.77;;;;;;;15.91;50.25;100506.63;5007791;28;20045;-78
2022/09/19 08:12:22;;;;;;;2.83;1.20;;;;;;;15.34;49.70;100384.28;5030312;28;20110;-77
2022/09/19 08:14:48;;;;;;;13.02;1.92;;;;;;;16.03;49.10;100504.56;5030315;28;20046;-81
2022/09/19 08:17:13;;;;;;;8.45;2.75;;;;;;;16.22;49.82;100505.09;5026972;28;20489;-80
2022/09/19 08:19:39;;;;;;;14.10;2.33;;;;;;;15.61;49.74;100371.38;5011697;28;20064;-80
2022/09/19 08:22:05;;;;;;;5.35;2.25;;;;;;;15.53;47.91;100339.81;5010252;28;20037;-80
2022/09/19 08:24:31;;;;;;;6.50;3.47;;;;;;;16.29;47.23;100447.53;5023585;28;20025;-81
2022/09/19 08:26:58;;;;;;;5.40;1.77;;;;;;;15.67;47.26;100336.88;5030081;28;20179;-81
2022/09/19 08:29:23;;;;;;;7.22;2.80;;;;;;;16.45;48.21;100413.63;5030206;28;20042;-80
2022/09/19 08:31:51;;;;;;;5.18;1.27;;;;;;;16.73;47.24;100476.53;5028688;28;20715;-81
2022/09/19 08:34:16;;;;;;;4.57;1.27;;;;;;;16.22;48.99;100361.22;5029985;28;20034;-81
2022/09/19 08:36:42;;;;;;;8.50;1.77;;;;;;;16.64;46.69;100441.41;5030453;28;20150;-81
2022/09/19 08:39:07;;;;;;;7.15;2.28;;;;;;;16.20;47.27;100345.38;5011696;28;20142;-81
2022/09/19 08:41:38;;;;;;;4.82;1.95;;;;;;;16.94;44.71;100465.44;5029859;28;20132;-81
2022/09/19 08:44:30;;;;;;;1.83;0.65;;;;;;;16.80;45.33;100451.66;5030084;28;20045;-79
2022/09/19 08:47:09;;;;;;;12.05;5.78;;;;;;;16.99;45.84;100439.66;5046537;28;20049;-79
2022/09/19 08:49:53;;;;;;;4.80;1.77;;;;;;;16.40;45.66;100314.88;5037016;28;20030;-77
2022/09/19 08:52:36;;;;;;;2.38;1.05;;;;;;;17.22;44.57;100422.28;5010384;28;20078;-81
2022/09/19 08:55:05;;;;;;;3.50;1.58;;;;;;;16.73;45.80;100338.75;5023340;28;20128;-82
2022/09/19 08:57:34;;;;;;;9.55;2.80;;;;;;;17.38;45.04;100439.53;5029956;28;20037;-81
2022/09/19 09:00:13;;;;;;;3.53;0.98;;;;;;;16.96;43.83;100314.31;5029382;28;20156;-78
2022/09/19 09:03:00;;;;;;;14.52;1.60;;;;;;;17.61;45.40;100416.78;5028911;28;20065;-82
2022/09/19 09:05:44;;;;;;;4.50;0.98;;;;;;;17.47;43.67;100433.97;5010704;28;20046;-83
2022/09/19 09:08:34;;;;;;;5.50;1.30;;;;;;;17.75;44.70;100434.94;5029183;28;20113;-82
2022/09/19 09:11:27;;;;;;;1.88;0.85;;;;;;;17.80;42.67;100444.53;5029373;28;20053;-82
2022/09/19 09:14:14;;;;;;;4.47;1.25;;;;;;;17.90;42.29;100432.75;4992581;28;20100;-81
2022/09/19 09:17:18;;;;;;;5.40;1.23;;;;;;;17.98;42.16;100443.16;5028591;28;20053;-80
2022/09/19 09:20:05;;;;;;;2.60;1.30;;;;;;;17.97;43.43;100436.09;5009761;28;20045;-81
2022/09/19 09:22:43;;;;;;;10.52;1.60;;;;;;;17.34;44.46;100305.25;5008211;28;20143;-78
2022/09/19 09:25:29;;;;;;;2.55;1.10;;;;;;;18.26;43.88;100445.84;5027394;28;20042;-81
2022/09/19 09:28:25;;;;;;;8.52;1.33;;;;;;;18.24;42.98;100434.38;5029268;28;20105;-80
2022/09/19 09:30:53;;;;;;;13.60;1.70;;;;;;;17.99;42.55;100388.25;5011157;28;20045;-81
2022/09/19 09:33:30;;;;;;;10.35;2.63;;;;;;;18.07;42.15;100402.16;5027218;28;20040;-80
2022/09/19 09:36:06;;;;;;;5.45;1.33;;;;;;;17.82;41.56;100319.78;5028812;28;20045;-80
2022/09/19 09:38:51;;;;;;;2.75;0.95;;;;;;;18.58;41.29;100424.44;5029312;28;20672;-80
2022/09/19 09:41:45;;;;;;;10.50;2.90;;;;;;;18.66;42.31;100417.06;5029224;28;20076;-80
2022/09/19 09:44:13;;;;;;;3.10;1.77;;;;;;;18.78;40.90;100430.03;5029172;28;20539;-82
2022/09/19 09:46:53;;;;;;;2.83;1.13;;;;;;;18.53;40.12;100420.16;5028689;28;20103;-83
2022/09/19 09:49:22;;;;;;;2.42;0.98;;;;;;;17.74;40.78;100282.78;5009323;28;20033;-80
2022/09/19 09:51:56;;;;;;;1.73;0.77;;;;;;;18.58;39.80;100425.31;5005393;28;20476;-81
2022/09/19 09:57:59;;;;;;;6.03;1.63;;;;;;;18.68;39.85;100418.78;5009437;28;20053;-82
2022/09/19 10:03:39;;;;;;;7.57;1.63;;;;;;;18.73;39.91;100400.91;5008278;28;20053;-83
2022/09/19 10:06:05;;;;;;;2.50;0.75;;;;;;;18.92;39.14;100406.47;5008406;28;20050;-82
2022/09/19 10:08:56;;;;;;;1.95;0.70;;;;;;;18.11;40.12;100334.75;5008644;28;20057;-80
2022/09/19 10:12:15;;;;;;;3.53;1.13;;;;;;;18.76;39.70;100374.22;5008520;28;20038;-81
2022/09/19 10:14:42;;;;;;;3.63;1.58;;;;;;;19.21;39.81;100387.75;4947800;29;20079;-82
2022/09/19 10:17:08;;;;;;;3.20;0.77;;;;;;;19.14;38.12;100382.66;4944775;28;20629;-81
2022/09/19 10:19:49;;;;;;;4.22;1.45;;;;;;;19.03;38.94;100370.66;4972832;28;20097;-79
2022/09/19 10:22:18;;;;;;;2.35;0.90;;;;;;;18.84;37.91;100310.16;5007635;28;20081;-80
2022/09/19 10:24:52;;;;;;;4.13;1.20;;;;;;;19.54;38.16;100370.53;5008309;28;20541;-82
2022/09/19 10:27:43;;;;;;;3.47;0.63;;;;;;;19.70;37.90;100362.88;5008377;28;20056;-81
2022/09/19 10:30:24;;;;;;;3.83;1.02;;;;;;;19.65;38.23;100276.97;5008280;28;20121;-81
2022/09/19 10:32:51;;;;;;;3.15;0.98;;;;;;;19.98;36.99;100253.44;4990715;28;20105;-79
2022/09/19 10:35:41;;;;;;;2.15;0.73;;;;;;;20.80;35.46;100360.19;5006307;28;20056;-82
2022/09/19 10:38:14;;;;;;;1.40;0.50;;;;;;;21.28;35.86;100382.09;5008345;28;20044;-81
2022/09/19 10:40:58;;;;;;;3.72;1.45;;;;;;;21.47;35.21;100371.50;5007769;28;20049;-81
2022/09/19 10:43:48;;;;;;;2.35;0.75;;;;;;;21.60;33.76;100363.78;4990309;28;20214;-77
2022/09/19 10:46:31;;;;;;;2.88;0.70;;;;;;;21.89;34.82;100306.28;5007028;28;20057;-86
2022/09/19 10:48:57;;;;;;;;;;;;;;;21.77;32.08;100349.63;4988507;28;20677;-82
2022/09/19 10:51:36;;;;;;;6.70;1.55;;;;;;;21.25;34.09;100214.97;5018572;28;20329;-82
2022/09/19 10:54:10;;;;;;;4.18;1.50;;;;;;;21.93;32.35;100324.78;5027464;28;20049;-80
2022/09/19 10:56:39;;;;;;;5.18;1.17;;;;;;;21.16;34.69;100204.72;5027757;28;20064;-79
2022/09/19 10:59:10;;;;;;;1.27;0.57;;;;;;;20.77;33.26;100333.66;5025343;28;20121;-80
2022/09/19 11:01:36;;;;;;;5.82;0.77;;;;;;;21.25;33.82;100326.19;5026778;28;20045;-79
2022/09/19 11:04:23;;;;;;;3.30;1.08;;;;;;;21.60;33.25;100311.22;5027483;28;20041;-81
2022/09/19 11:06:58;;;;;;;2.72;0.93;;;;;;;21.93;34.61;100310.56;5026456;28;20578;-81
2022/09/19 11:09:35;;;;;;;6.82;0.88;;;;;;;21.60;32.58;100240.94;5027376;28;20034;-81
2022/09/19 11:12:05;;;;;;;2.97;1.23;;;;;;;22.19;33.52;100313.75;5024610;28;20824;-81
2022/09/19 11:14:32;;;;;;;3.00;1.42;;;;;;;21.57;32.85;100286.50;5026861;28;20141;-82
2022/09/19 11:17:05;;;;;;;5.88;1.02;;;;;;;21.41;32.66;100275.66;5006713;28;20517;-81
2022/09/19 11:19:39;;;;;;;2.33;0.60;;;;;;;21.83;33.00;100301.25;5004943;28;20038;-82
2022/09/19 11:22:10;;;;;;;6.78;2.08;;;;;;;21.90;33.05;100302.69;4988869;28;20061;-79
2022/09/19 11:25:41;;;;;;;0.75;0.50;;;;;;;21.91;31.93;100291.06;5021468;28;20060;-81
2022/09/19 11:28:34;;;;;;;0.80;0.45;;;;;;;21.92;32.04;100290.13;4899703;29;20457;-80
2022/09/19 11:31:05;;;;;;;;;;;;;;;21.92;32.00;100301.69;5022884;28;20045;-82
2022/09/19 11:34:02;;;;;;;1.90;0.85;;;;;;;21.81;31.73;100287.97;5007409;28;19917;-81
2022/09/19 11:36:51;;;;;;;1.00;0.40;;;;;;;21.68;32.71;100271.69;5007418;28;20088;-81
2022/09/19 11:39:22;;;;;;;2.60;1.23;;;;;;;20.96;30.47;100135.44;5007135;28;20060;-82
2022/09/19 11:42:10;;;;;;;2.20;1.00;;;;;;;22.03;31.61;100289.59;5007191;28;20133;-82
2022/09/19 11:44:50;;;;;;;3.25;0.98;;;;;;;21.83;31.70;100294.09;5007289;28;20068;-76
2022/09/19 11:47:28;;;;;;;4.40;0.60;;;;;;;21.78;31.77;100300.63;5009852;28;20124;-81
2022/09/19 11:50:25;;;;;;;6.97;1.33;;;;;;;21.66;31.28;100294.06;5009522;28;20042;-81
2022/09/19 11:53:03;;;;;;;2.25;1.08;;;;;;;21.75;31.56;100300.75;5007088;28;20450;-80
2022/09/19 11:55:46;;;;;;;1.83;0.60;;;;;;;21.12;31.30;100168.47;5020870;28;20041;-80
2022/09/19 11:58:38;;;;;;;7.07;0.90;;;;;;;21.92;31.23;100290.13;5026597;28;20042;-81
2022/09/19 12:01:22;;;;;;;3.83;0.80;;;;;;;20.98;30.43;100155.78;5026991;28;20037;-79
2022/09/19 12:04:01;;;;;;;3.22;1.77;;;;;;;21.30;31.89;100180.03;5008944;28;20045;-80
2022/09/19 12:07:25;;;;;;;7.65;1.40;;;;;;;21.82;31.41;100283.47;5009052;28;20123;-82